Weather observations for the past three days for
Jack Barstow Airport
Metric (Imperial)
Date Time (edt) Wind (kph) Vis. (km) Weather Sky Cond. Temperature (ºC) Relative Humidity Wind Chill (°C) Heat Index (°C) Pressure Precipitation (cm)
Air Dwpt 6 hour altimeter (cm) sea level (mb) 1 hr 3 hr 6 hr
Max. Min.
02 18:15 Vrbl 9 16.09 Mostly Cloudy BKN085 11 -7 28% 76.07 0.0
02 17:55 W 20 16.09 Overcast OVC085 11 -8 26% 76.07 0.0
02 17:36 Vrbl 11 16.09 Mostly Cloudy BKN085 11 -8 26% 76.1 0.0
02 17:15 W 4 16.09 Mostly Cloudy BKN085 10 -8 28% 76.1 0.0
02 16:55 W 17 G 26 16.09 Mostly Cloudy SCT075 BKN090 11 -7 28% 76.12 0.0
02 16:35 Vrbl 9 16.09 Mostly Cloudy BKN080 11 -7 28% 76.12 0.0
02 16:15 NW 6 16.09 Mostly Cloudy SCT070 BKN080 10 -7 30% 76.15 0.0
02 15:55 NW 9 G 26 16.09 Overcast OVC070 10 -7 30% 9 76.17 0.0
02 15:35 SW 19 16.09 Overcast BKN070 OVC080 10 -6 32% 8 76.2 0.0
02 15:16 W 15 16.09 Overcast OVC070 9 -6 34% 7 76.23 0.0
02 14:55 N 15 16.09 Overcast OVC070 10 -6 32% 8 76.23 0.0
02 14:35 W 9 16.09 Overcast OVC075 9 -7 32% 8 76.25 0.0
02 14:15 Vrbl 6 16.09 Overcast OVC075 9 -7 32% 76.25 0.0
02 13:55 NW 17 16.09 Overcast OVC075 9 -6 9.8 1.2 34% 7 76.28 0.0
02 13:35 N 15 16.09 Mostly Cloudy BKN055 9 -7 32% 7 76.25 0.0
02 13:15 NW 11 G 28 16.09 Mostly Cloudy BKN055 8 -7 34% 6 76.28 0.0
02 12:56 Vrbl 11 16.09 Mostly Cloudy BKN055 8 -7 34% 6 76.3 0.0
02 12:35 Vrbl 7 16.09 Mostly Cloudy SCT055 BKN065 9 -6 34% 8 76.3 0.0
02 12:15 NW 17 16.09 A Few Clouds FEW049 8 -5 40% 6 76.33 0.0
02 11:55 N 13 16.09 A Few Clouds FEW047 8 -6 37% 6 76.33 0.0
02 11:35 N 19 16.09 Partly Cloudy SCT043 7 -6 39% 4 76.33 0.0
02 11:15 N 19 16.09 Mostly Cloudy BKN043 7 -5 43% 4 76.35 0.0
02 10:55 NW 20 16.09 Mostly Cloudy BKN043 7 -5 43% 4 76.35 0.0
02 10:36 W 15 16.09 A Few Clouds FEW045 6 -5 46% 3 76.35 0.0
02 10:15 NW 13 16.09 A Few Clouds FEW045 6 -6 42% 4 76.35 0.0
02 09:55 NW 13 16.09 A Few Clouds FEW036 5 -6 45% 2 76.35 0.0
02 09:35 Vrbl 9 16.09 Partly Cloudy SCT032 SCT039 6 -4 49% 4 76.35 0.0
02 09:15 NW 11 16.09 A Few Clouds FEW029 4 -3 61% 2 76.38 0.0
02 08:55 NW 11 16.09 Fair CLR 4 -2 65% 2 76.38 0.0
02 08:35 NW 11 16.09 Fair CLR 3 -2 70% 0 76.38 0.0
02 08:16 NW 9 16.09 Fair CLR 2 -2 75% -0 76.4 0.0
02 07:55 NW 7 16.09 Fair CLR 1 -3 3.6 -1.5 75% -1 76.38 0.0
02 07:35 NW 7 16.09 Fair CLR 1 -3 75% -1 76.38 0.0
02 07:15 NW 6 16.09 Fair CLR 0 -3 80% 76.38 0.0
02 06:55 NW 4 16.09 Fair CLR -1 -4 80% 76.35 0.0
02 06:35 NW 4 16.09 Fair CLR -1 -3 86% 76.35 0.0
02 06:15 W 4 16.09 Fair CLR -1 -4 80% 76.35 0.0
02 05:56 NW 6 16.09 Fair CLR -1 -4 80% 76.35 0.0
02 05:35 NW 6 16.09 Fair CLR -1 -4 80% 76.33 0.0
02 05:15 NW 6 16.09 Fair CLR -1 -4 80% 76.33 0.0
02 04:55 NW 6 16.09 Fair CLR 0 -4 75% 76.33 0.0
02 04:35 NW 4 16.09 Fair CLR 0 -4 75% 76.33 0.0
02 04:15 NW 7 16.09 Fair CLR 1 -4 70% -1 76.3 0.0
02 03:55 NW 7 16.09 Partly Cloudy SCT085 1 -3 75% -1 76.3 0.0
02 03:36 NW 9 16.09 Overcast OVC085 2 -3 70% -0 76.3 0.0
02 03:15 NW 6 16.09 Overcast OVC085 3 -3 65% 76.3 0.0
02 02:55 NW 6 16.09 Overcast OVC085 3 -3 65% 76.33 0.0
02 02:35 NW 6 16.09 Overcast OVC085 3 -3 65% 76.33 0.0
02 02:15 NW 4 16.09 Overcast OVC085 3 -3 65% 76.33 0.0
02 01:55 NW 6 16.09 Overcast OVC085 4 -4 6.3 3.5 56% 76.33 0.0
02 01:35 NW 7 16.09 Overcast OVC085 4 -4 56% 2 76.33 0.0
02 01:16 NW 7 16.09 Overcast OVC085 4 -4 56% 2 76.3 0.0
02 00:55 NW 7 16.09 Overcast OVC085 4 -4 56% 2 76.3 0.0
02 00:35 NW 7 16.09 Overcast OVC085 4 -4 56% 2 76.3 0.0
02 00:15 NW 7 16.09 Overcast OVC085 4 -5 52% 2 76.3 0.0
01 23:55 NW 6 16.09 Overcast OVC085 5 -5 49% 76.3 0.0
01 23:35 N 6 16.09 Overcast OVC085 5 -5 49% 76.28 0.0
01 23:15 N 9 16.09 Overcast OVC085 5 -6 45% 3 76.28 0.0
01 22:56 N 7 16.09 Overcast OVC085 5 -5 49% 4 76.28 0.0
01 22:35 N 9 16.09 Overcast OVC085 5 -5 49% 3 76.28 0.0
01 22:15 N 9 16.09 Overcast OVC085 5 -5 49% 3 76.28 0.0
01 21:55 NW 9 16.09 Overcast OVC075 5 -6 45% 3 76.25 0.0
01 21:35 NW 9 16.09 Overcast OVC075 6 -5 46% 4 76.25 0.0
01 21:15 NW 7 16.09 Overcast OVC075 6 -5 46% 5 76.23 0.0
01 20:55 NW 7 16.09 Overcast OVC075 6 -5 46% 5 76.23 0.0
01 20:36 NW 6 16.09 Overcast FEW050 OVC075 6 -5 46% 76.23 0.0
01 20:15 NW 11 16.09 Overcast OVC075 6 -6 42% 4 76.2 0.0
01 19:55 N 19 16.09 Overcast FEW055 FEW065 OVC075 6 -6 9.4 6.2 42% 3 76.17 0.0
01 19:35 NW 13 16.09 Overcast OVC075 6 -6 42% 4 76.17 0.0
01 19:15 N 22 16.09 Overcast FEW048 FEW055 OVC075 7 -5 43% 4 76.17 0.0
01 18:55 NW 15 16.09 Overcast BKN055 OVC075 7 -6 39% 5 76.15 0.0
01 18:35 N 17 16.09 Overcast BKN055 OVC075 7 -6 39% 4 76.17 0.0
01 18:16 N 9 16.09 Overcast OVC055 7 -5 43% 5 76.15 0.0
01 17:55 NW 19 G 26 16.09 Overcast BKN055 OVC065 7 -5 43% 4 76.12 0.0
01 17:35 W 17 16.09 Overcast OVC075 8 -5 40% 6 76.12 0.0
01 17:15 NW 13 16.09 Overcast OVC060 8 -6 37% 6 76.1 0.0
01 16:55 NW 15 16.09 Overcast BKN060 BKN070 OVC080 8 -5 40% 6 76.1 0.0
01 16:35 NW 19 16.09 Overcast SCT055 OVC070 8 -5 40% 5 76.1 0.0
01 16:15 W 19 16.09 Overcast SCT060 SCT070 OVC080 9 -5 37% 7 76.1 0.0
01 15:56 W 15 16.09 Overcast SCT060 SCT070 OVC080 9 -5 37% 7 76.1 0.0
01 15:35 NW 11 16.09 Overcast SCT050 OVC080 9 -5 37% 8 76.07 0.0
01 15:15 N 15 16.09 Overcast FEW050 OVC080 9 -5 37% 7 76.07 0.0
01 14:55 N 13 16.09 Overcast SCT050 SCT070 OVC080 8 -5 40% 6 76.1 0.0
01 14:35 NW 13 G 26 16.09 Overcast SCT050 BKN070 OVC080 8 -5 40% 6 76.1 0.0
01 14:15 NW 15 16.09 Overcast BKN050 OVC080 8 -4 43% 6 76.07 0.0
01 13:55 N 13 16.09 Overcast FEW048 BKN050 OVC080 8 -4 9.2 1.2 43% 6 76.07 0.0
01 13:36 NW 13 16.09 Overcast OVC050 8 -4 43% 6 76.1 0.0
01 13:15 Vrbl 9 16.09 Overcast OVC060 8 -3 46% 7 76.1 0.0
01 12:55 NW 13 16.09 Overcast SCT046 OVC060 9 -4 40% 7 76.1 0.0
01 12:35 N 20 G 31 16.09 Overcast BKN046 BKN050 OVC080 8 -3 46% 5 76.1 0.0
01 12:15 N 17 16.09 Overcast FEW041 SCT049 OVC080 8 -3 46% 6 76.1 0.0
01 11:55 W 15 16.09 Overcast BKN039 BKN060 OVC080 7 -3 49% 5 76.12 0.0
01 11:35 Vrbl 6 16.09 Overcast SCT035 BKN060 OVC080 7 -2 53% 76.12 0.0
01 11:16 N 11 16.09 Overcast OVC080 7 -2 53% 5 76.12 0.0
01 10:55 NE 11 16.09 Overcast OVC080 6 -2 57% 4 76.12 0.0
01 10:35 NW 13 16.09 Overcast OVC080 6 -2 57% 4 76.12 0.0
01 10:15 Vrbl 9 16.09 Overcast OVC080 5 -2 61% 3 76.12 0.0
01 09:55 N 9 16.09 Overcast SCT050 SCT060 OVC080 5 -2 61% 3 76.15 0.0
01 09:35 N 13 16.09 Overcast OVC050 4 -2 65% 1 76.12 0.0
01 09:15 N 11 16.09 Overcast BKN050 OVC085 4 -1 70% 2 76.15 0.0
01 08:56 NW 6 16.09 Overcast SCT050 OVC085 3 -2 70% 76.12 0.0
01 08:35 N 6 16.09 Overcast BKN050 OVC085 3 -1 75% 76.12 0.0
01 08:15 N 7 16.09 Overcast OVC085 2 -2 75% 0 76.12 0.0
01 07:55 Vrbl 4 16.09 Overcast OVC085 1 -2 1.2 -2 81% 76.1 0.0
01 07:35 NW 4 16.09 Overcast FEW028 OVC085 0 -2 87% 76.1 0.0
01 07:15 NW 6 16.09 Overcast FEW027 OVC085 -1 -2 93% 76.07 0.0
01 06:55 W 2 16.09 Overcast FEW027 OVC085 -1 -3 86% 76.07 0.0
01 06:36 SW 4 16.09 Overcast OVC085 -1 -3 86% 76.07 0.0
01 06:15 NW 4 16.09 A Few Clouds FEW085 -2 -3 93% 76.05 0.0
01 05:55 NW 4 16.09 Fair CLR -2 -3 93% 76.05 0.0
01 05:35 N 6 16.09 Fair CLR -2 -3 93% 76.05 0.0
01 05:15 NW 4 16.09 Fair CLR -1 -3 86% 76.07 0.0
01 04:55 N 7 16.09 Fair CLR -1 -4 80% -3 76.07 0.0
01 04:35 N 7 16.09 Fair CLR -1 -4 80% -3 76.07 0.0
01 04:16 NW 7 16.09 Fair CLR -1 -3 86% -3 76.1 0.0
01 03:55 N 9 16.09 Fair CLR -1 -4 80% -4 76.1 0.0
01 03:35 NW 11 16.09 Fair CLR 0 -4 75% -3 76.1 0.0
01 03:15 NW 6 16.09 Fair CLR -1 -3 86% 76.1 0.0
01 02:55 NW 4 16.09 Fair CLR -1 -3 86% 76.1 0.0
01 02:35 Calm 16.09 Fair CLR -1 -3 86% 76.1 0.0
01 02:15 SW 4 16.09 Fair CLR -1 -3 86% 76.1 0.0
01 01:56 NW 4 16.09 Fair CLR 0 -3 80% 76.12 0.0
01 01:35 NW 7 16.09 Fair CLR 0 -3 80% -2 76.12 0.0
01 01:15 Vrbl 2 16.09 Fair CLR 0 -3 80% 76.1 0.0
01 00:55 Vrbl 2 16.09 Fair CLR 1 -3 75% 76.1 0.0
01 00:35 NW 6 16.09 Fair CLR 0 -3 80% 76.1 0.0
01 00:15 Vrbl 2 16.09 Fair CLR 1 -3 75% 76.12 0.0
30 23:55 SW 4 16.09 Fair CLR 2 -2 75% 76.12 0.0
30 23:36 SW 4 16.09 Fair CLR 2 -2 75% 76.12 0.0
30 23:15 Vrbl 2 16.09 Fair CLR 3 -2 70% 76.12 0.0
30 22:55 SW 6 16.09 Fair CLR 3 -2 70% 76.12 0.0
30 22:35 Vrbl 2 16.09 Fair CLR 4 -3 61% 76.12 0.0
30 22:15 N 2 16.09 Partly Cloudy SCT080 5 -3 57% 76.12 0.0
30 21:55 N 6 16.09 Overcast OVC080 6 -2 57% 76.12 0.0
30 21:35 N 6 16.09 Overcast OVC080 6 -4 49% 76.1 0.0
30 21:16 N 7 16.09 Overcast OVC080 7 -5 43% 6 76.07 0.0
30 20:55 N 7 16.09 Mostly Cloudy BKN080 7 -5 43% 6 76.07 0.0
30 20:35 N 11 16.09 Mostly Cloudy BKN080 8 -5 40% 6 76.07 0.0
30 20:15 NW 19 16.09 Overcast OVC080 8 -4 43% 5 76.05 0.0
30 19:55 N 17 16.09 Overcast OVC080 9 -3 11.9 8.7 43% 7 76.05 0.0
30 19:35 NW 20 16.09 Overcast OVC080 9 -3 43% 6 76.05 0.0
30 19:15 N 19 16.09 Overcast OVC080 10 -3 40% 8 76.05 0.0
30 18:56 N 15 16.09 Mostly Cloudy BKN080 10 -3 40% 8 76.02 0.0
30 18:35 NW 19 16.09 Overcast FEW060 OVC070 10 -2 43% 8 76.05 0.0
30 18:15 W 13 16.09 Overcast BKN050 BKN065 OVC080 10 -2 43% 8 76.05 0.0
30 17:55 N 11 16.09 Overcast BKN050 BKN065 OVC080 11 -1 44% 76.02 0.0
30 17:35 NW 15 16.09 Overcast SCT048 SCT065 OVC080 10 -1 47% 8 76.02 0.0
30 17:15 NW 20 G 28 16.09 Overcast BKN065 OVC080 10 -2 43% 8 76.02 0.0
30 16:55 NW 20 16.09 Overcast BKN065 BKN075 OVC080 10 -2 43% 8 76.02 0.0
30 16:36 W 17 16.09 Overcast SCT050 BKN065 OVC090 11 -2 41% 76.02 0.0
30 16:15 NW 20 G 30 16.09 Overcast FEW050 FEW070 OVC090 11 -2 41% 76.05 0.0
30 15:55 NW 19 G 26 16.09 Overcast FEW050 OVC080 11 -1 44% 76.02 0.0
30 15:35 NW 13 16.09 Overcast FEW050 SCT060 OVC080 10 -3 40% 8 76.05 0.0
30 15:15 Vrbl 9 G 28 16.09 Overcast FEW050 SCT075 OVC090 11 -2 41% 76.05 0.0
30 14:55 W 11 16.09 Overcast FEW050 OVC075 10 -2 43% 9 76.07 0.0
30 14:35 W 17 16.09 Overcast BKN050 BKN070 OVC085 10 -3 40% 8 76.07 0.0
30 14:16 NW 20 G 28 16.09 Overcast FEW049 SCT070 OVC085 10 -3 40% 8 76.07 0.0
30 13:55 NW 22 16.09 Overcast BKN070 OVC085 9 -3 9.4 3.5 43% 6 76.07 0.0
30 13:35 NW 17 16.09 Overcast SCT050 BKN070 OVC085 9 -1 50% 7 76.1 0.0
30 13:15 NW 13 16.09 Overcast BKN040 BKN047 OVC050 7 -1 57% 5 76.1 0.0
30 12:55 W 7 16.09 Overcast BKN047 BKN050 OVC080 8 -2 50% 7 76.1 0.0
30 12:35 W 9 16.09 Overcast FEW047 BKN080 OVC085 8 -2 50% 7 76.1 0.0
30 12:15 N 11 16.09 Overcast SCT065 BKN075 OVC090 9 -1 50% 8 76.1 0.0
30 11:56 N 11 16.09 Overcast SCT038 SCT050 OVC080 9 -1 50% 8 76.1 0.0
30 11:35 NW 9 16.09 Overcast BKN034 OVC050 9 0 54% 8 76.1 0.0
30 11:15 W 13 16.09 Overcast BKN032 OVC095 8 0 57% 6 76.12 0.0
30 10:55 NW 11 16.09 Partly Cloudy FEW028 SCT095 9 2 62% 8 76.12 0.0
30 10:35 NW 9 16.09 A Few Clouds FEW090 7 0 61% 5 76.1 0.0
30 10:15 NW 7 16.09 Mostly Cloudy BKN090 6 0 66% 5 76.1 0.0
30 09:55 W 11 16.09 Mostly Cloudy BKN100 7 1 66% 5 76.1 0.0
30 09:36 NW 7 16.09 Mostly Cloudy SCT080 BKN100 5 0 70% 4 76.1 0.0
30 09:15 W 7 16.09 Overcast OVC075 5 0 70% 4 76.1 0.0
30 08:55 NW 7 16.09 Overcast OVC075 4 0 75% 2 76.1 0.0
30 08:35 NW 7 16.09 Overcast OVC085 4 0 75% 2 76.1 0.0
30 08:15 Vrbl 4 16.09 Overcast OVC085 4 1 81% 76.1 0.0
30 07:55 W 11 16.09 Overcast OVC085 4 1 5.6 2.6 81% 2 76.1 0.0
30 07:35 NW 2 16.09 Overcast BKN085 OVC120 3 0 81% 76.07 0.0
30 07:16 N 4 16.09 Mostly Cloudy BKN095 BKN120 3 0 81% 76.07 0.0
30 06:56 NW 6 16.09 Overcast OVC095 3 0 81% 76.07 0.0
30 06:35 W 7 16.09 Overcast OVC095 3 0 81% 1 76.07 0.0
30 06:15 NW 6 16.09 Mostly Cloudy BKN095 3 1 87% 76.07 0.0
30 05:55 NW 6 16.09 Fair CLR 3 0 81% 76.05 0.0
30 05:35 W 7 16.09 A Few Clouds FEW120 3 1 87% 1 76.05 0.0
30 05:15 NW 7 16.09 Partly Cloudy SCT120 4 1 81% 2 76.05 0.0
30 04:55 NW 4 16.09 Partly Cloudy SCT120 3 1 87% 76.02 0.0
30 04:36 NW 4 16.09 Fair CLR 4 1 81% 76.02 0.0
30 04:15 W 7 16.09 A Few Clouds FEW110 4 2 87% 2 76.02 0.0
30 03:55 W 6 16.09 A Few Clouds FEW100 4 2 87% 76.02 0.0
30 03:35 NW 7 16.09 Partly Cloudy SCT100 5 2 81% 4 76.02 0.0
30 03:15 NW 9 16.09 A Few Clouds FEW120 5 2 81% 3 76 0.0
30 02:55 NW 6 16.09 Partly Cloudy FEW085 SCT120 5 3 87% 76.02 0.0
30 02:35 NW 6 16.09 Overcast OVC085 5 3 87% 76.02 0.0
30 02:16 NW 6 16.09 Overcast OVC075 5 3 87% 76.02 0.0
30 01:55 W 6 16.09 Overcast BKN075 OVC085 6 3 6.4 5.5 81% 76.02 0.0
30 01:35 W 6 16.09 Overcast FEW036 BKN075 OVC080 6 4 87% 76.02 0.0
30 01:15 W 6 16.09 Overcast BKN065 OVC080 6 4 87% 76.05 0.0
30 00:55 W 6 16.09 Overcast FEW045 FEW050 OVC065 6 4 87% 76.05 0.0
30 00:35 W 4 16.09 Light Drizzle FEW030 SCT043 BKN050 6 4 87% 76.05 0.0
30 00:15 W 6 16.09 Light Rain SCT031 SCT035 BKN050 6 4 87% 76.05 0.0
29 23:56 W 6 16.09 Light Rain FEW029 SCT048 6 4 87% 76.05 0.0
29 23:35 W 6 16.09 Light Rain FEW029 FEW044 6 4 87% 76.05 0.0
29 23:15 W 6 16.09 Light Rain SCT027 SCT046 6 4 87% 76.05 0.0
29 22:55 W 6 16.09 Light Rain BKN027 BKN046 6 4 87% 76.05 0.0 0.03
29 22:35 SW 6 4.83 Light Rain Fog/Mist OVC027 6 4 87% 76.05 0.0
29 22:15 W 4 14.48 Light Rain SCT021 BKN027 OVC036 6 4 87% 76.05 0.0
29 21:55 W 4 16.09 Light Rain FEW015 BKN022 OVC027 6 3 81% 76.05 0.0 0.03
29 21:36 Calm 16.09 Light Rain FEW015 SCT020 OVC027 6 3 81% 76.02 0.0
29 21:15 NE 4 16.09 Light Rain FEW018 OVC027 6 3 81% 76.02 0.0
29 20:55 NE 6 16.09 Light Rain BKN018 OVC025 6 4 87% 76 0.0 0.08
29 20:35 N 6 16.09 Light Rain SCT018 OVC025 6 4 87% 76 0.0
29 20:15 E 7 16.09 Light Rain OVC027 6 4 87% 5 75.97 0.0
29 19:55 NE 4 16.09 Light Rain BKN027 OVC032 6 4 11.2 6.3 87% 75.97 0.0 0.05
29 19:35 NE 6 16.09 Light Rain SCT027 BKN032 OVC042 7 4 81% 75.97 0.0
29 19:16 NE 6 16.09 Light Rain BKN032 OVC040 7 4 81% 75.95 0.0
29 18:55 NE 7 16.09 Light Rain OVC036 7 4 81% 6 75.95 0.0
Date Time (edt) Wind (kph) Vis. (km) Weather Sky Cond. Air Dwpt Max. Min. Relative Humidity Wind Chill (°C) Heat Index (°C) altimeter (cm) sea level (mb) 1 hr 3 hr 6 hr
6 hour
Temperature (ºC) Pressure Precipitation (cm)